Terminal Aerodrome Forecast
Issued by NWS Shreveport, LA

Home | Current Version | Previous Version | Text Only | Print | Product List | Glossary On
Versions: 1 2 3 4 5 6 7 8 9 10 11 12 13 14
681
FTUS44 KSHV 251721
TAFELD
TAF
KELD 251721Z 2518/2618 20007KT P6SM SCT090 BKN250
     FM252100 27007KT P6SM BKN070 BKN250
     FM260000 30008KT P6SM VCSH BKN050 OVC080
     FM260300 29010KT 4SM -SHRA BR OVC007
     FM260600 28006KT P6SM SKC
     FM261400 31006KT P6SM SKC=

USA.gov is the U.S. government's official web portal to all federal, state and local government web resources and services.